sensor_id;sensor_type;location;lat;lon;timestamp;temperature;humidity
1455;DHT22;721;48.168;12.818;2023-02-15T00:01:05;-0.20;65.10
1455;DHT22;721;48.168;12.818;2023-02-15T00:03:32;-0.20;64.20
1455;DHT22;721;48.168;12.818;2023-02-15T00:05:59;-0.40;65.80
1455;DHT22;721;48.168;12.818;2023-02-15T00:08:26;-0.40;68.10
1455;DHT22;721;48.168;12.818;2023-02-15T00:10:53;-0.30;68.20
1455;DHT22;721;48.168;12.818;2023-02-15T00:13:21;-0.20;67.20
1455;DHT22;721;48.168;12.818;2023-02-15T00:15:48;-0.10;66.60
1455;DHT22;721;48.168;12.818;2023-02-15T00:18:14;0.00;64.90
1455;DHT22;721;48.168;12.818;2023-02-15T00:20:41;0.00;63.80
1455;DHT22;721;48.168;12.818;2023-02-15T00:23:08;0.00;62.00
1455;DHT22;721;48.168;12.818;2023-02-15T00:25:35;0.10;63.70
1455;DHT22;721;48.168;12.818;2023-02-15T00:28:01;0.00;63.20
1455;DHT22;721;48.168;12.818;2023-02-15T00:30:29;0.10;60.30
1455;DHT22;721;48.168;12.818;2023-02-15T00:32:57;0.10;61.40
1455;DHT22;721;48.168;12.818;2023-02-15T00:35:24;0.10;59.60
1455;DHT22;721;48.168;12.818;2023-02-15T00:37:50;0.10;59.30
1455;DHT22;721;48.168;12.818;2023-02-15T00:40:18;-0.20;60.00
1455;DHT22;721;48.168;12.818;2023-02-15T00:42:44;-0.10;61.20
1455;DHT22;721;48.168;12.818;2023-02-15T00:45:11;0.00;60.20
1455;DHT22;721;48.168;12.818;2023-02-15T00:47:39;0.10;59.60
1455;DHT22;721;48.168;12.818;2023-02-15T00:50:06;0.10;57.60
1455;DHT22;721;48.168;12.818;2023-02-15T00:52:33;0.10;57.50
1455;DHT22;721;48.168;12.818;2023-02-15T00:55:00;0.00;58.30
1455;DHT22;721;48.168;12.818;2023-02-15T00:57:26;0.00;56.80
1455;DHT22;721;48.168;12.818;2023-02-15T00:59:53;-0.20;60.00
1455;DHT22;721;48.168;12.818;2023-02-15T01:02:20;-0.20;62.20
1455;DHT22;721;48.168;12.818;2023-02-15T01:04:48;-0.30;62.30
1455;DHT22;721;48.168;12.818;2023-02-15T01:07:15;-0.30;64.10
1455;DHT22;721;48.168;12.818;2023-02-15T01:09:42;-0.30;65.90
1455;DHT22;721;48.168;12.818;2023-02-15T01:12:08;-0.20;65.40
1455;DHT22;721;48.168;12.818;2023-02-15T01:14:35;0.00;64.40
1455;DHT22;721;48.168;12.818;2023-02-15T01:17:02;0.00;62.70
1455;DHT22;721;48.168;12.818;2023-02-15T01:19:29;0.10;60.30
1455;DHT22;721;48.168;12.818;2023-02-15T01:21:57;0.20;59.90
1455;DHT22;721;48.168;12.818;2023-02-15T01:24:23;0.20;58.70
1455;DHT22;721;48.168;12.818;2023-02-15T01:26:50;0.30;57.60
1455;DHT22;721;48.168;12.818;2023-02-15T01:29:17;0.20;58.00
1455;DHT22;721;48.168;12.818;2023-02-15T01:31:44;0.10;56.30
1455;DHT22;721;48.168;12.818;2023-02-15T01:34:10;-0.20;61.30
1455;DHT22;721;48.168;12.818;2023-02-15T01:36:37;-0.10;62.10
1455;DHT22;721;48.168;12.818;2023-02-15T01:39:05;0.00;61.50
1455;DHT22;721;48.168;12.818;2023-02-15T01:41:33;-0.10;60.10
1455;DHT22;721;48.168;12.818;2023-02-15T01:44:01;0.00;61.30
1455;DHT22;721;48.168;12.818;2023-02-15T01:46:31;0.10;60.00
1455;DHT22;721;48.168;12.818;2023-02-15T01:49:02;0.20;57.00
1455;DHT22;721;48.168;12.818;2023-02-15T01:51:31;-0.20;56.70
1455;DHT22;721;48.168;12.818;2023-02-15T01:54:02;-0.10;59.40
1455;DHT22;721;48.168;12.818;2023-02-15T01:56:35;0.00;58.80
1455;DHT22;721;48.168;12.818;2023-02-15T01:59:06;-0.10;55.70
1455;DHT22;721;48.168;12.818;2023-02-15T02:01:34;0.00;58.30
1455;DHT22;721;48.168;12.818;2023-02-15T02:04:05;-0.20;59.60
1455;DHT22;721;48.168;12.818;2023-02-15T02:06:35;-0.30;60.90
1455;DHT22;721;48.168;12.818;2023-02-15T02:09:03;-0.40;63.00
1455;DHT22;721;48.168;12.818;2023-02-15T02:11:30;-0.30;62.40
1455;DHT22;721;48.168;12.818;2023-02-15T02:13:59;-0.20;61.30
1455;DHT22;721;48.168;12.818;2023-02-15T02:16:30;-0.30;61.70
1455;DHT22;721;48.168;12.818;2023-02-15T02:19:31;-0.40;61.30
1455;DHT22;721;48.168;12.818;2023-02-15T02:22:39;-0.30;63.10
1455;DHT22;721;48.168;12.818;2023-02-15T02:25:35;-0.40;63.20
1455;DHT22;721;48.168;12.818;2023-02-15T02:28:20;-0.20;61.90
1455;DHT22;721;48.168;12.818;2023-02-15T02:34:00;-0.40;62.30
1455;DHT22;721;48.168;12.818;2023-02-15T02:36:33;-0.40;61.50
1455;DHT22;721;48.168;12.818;2023-02-15T02:39:11;-0.30;61.70
1455;DHT22;721;48.168;12.818;2023-02-15T02:41:44;-0.30;61.80
1455;DHT22;721;48.168;12.818;2023-02-15T02:44:18;-0.30;61.10
1455;DHT22;721;48.168;12.818;2023-02-15T02:46:50;-0.20;60.00
1455;DHT22;721;48.168;12.818;2023-02-15T02:49:31;-0.50;61.20
1455;DHT22;721;48.168;12.818;2023-02-15T02:51:59;-0.30;60.00
1455;DHT22;721;48.168;12.818;2023-02-15T02:54:27;-0.40;59.30
1455;DHT22;721;48.168;12.818;2023-02-15T02:56:55;-0.30;60.00
1455;DHT22;721;48.168;12.818;2023-02-15T02:59:27;-0.30;59.60
1455;DHT22;721;48.168;12.818;2023-02-15T03:02:00;-0.20;58.70
1455;DHT22;721;48.168;12.818;2023-02-15T03:04:32;-0.20;57.40
1455;DHT22;721;48.168;12.818;2023-02-15T03:07:04;-0.10;57.50
1455;DHT22;721;48.168;12.818;2023-02-15T03:09:33;-0.10;56.90
1455;DHT22;721;48.168;12.818;2023-02-15T03:12:08;-0.20;57.10
1455;DHT22;721;48.168;12.818;2023-02-15T03:14:35;-0.10;57.40
1455;DHT22;721;48.168;12.818;2023-02-15T03:17:04;-0.20;59.20
1455;DHT22;721;48.168;12.818;2023-02-15T03:19:35;0.00;59.10
1455;DHT22;721;48.168;12.818;2023-02-15T03:22:05;0.00;56.70
1455;DHT22;721;48.168;12.818;2023-02-15T03:24:37;-0.10;56.90
1455;DHT22;721;48.168;12.818;2023-02-15T03:27:10;-0.10;55.30
1455;DHT22;721;48.168;12.818;2023-02-15T03:29:38;-0.20;58.50
1455;DHT22;721;48.168;12.818;2023-02-15T03:32:07;-0.20;59.00
1455;DHT22;721;48.168;12.818;2023-02-15T03:34:37;-0.20;60.00
1455;DHT22;721;48.168;12.818;2023-02-15T03:37:09;-0.10;60.10
1455;DHT22;721;48.168;12.818;2023-02-15T03:39:39;-0.10;58.80
1455;DHT22;721;48.168;12.818;2023-02-15T03:42:11;-0.20;60.00
1455;DHT22;721;48.168;12.818;2023-02-15T03:44:45;-0.20;59.10
1455;DHT22;721;48.168;12.818;2023-02-15T03:47:17;-0.20;60.00
1455;DHT22;721;48.168;12.818;2023-02-15T03:49:49;-0.30;59.50
1455;DHT22;721;48.168;12.818;2023-02-15T03:52:17;-0.30;58.50
1455;DHT22;721;48.168;12.818;2023-02-15T03:54:44;-0.20;58.90
1455;DHT22;721;48.168;12.818;2023-02-15T03:57:18;-0.20;58.70
1455;DHT22;721;48.168;12.818;2023-02-15T04:00:05;-0.20;59.10
1455;DHT22;721;48.168;12.818;2023-02-15T04:03:12;-0.30;57.00
1455;DHT22;721;48.168;12.818;2023-02-15T04:05:45;-0.30;56.90
1455;DHT22;721;48.168;12.818;2023-02-15T04:08:12;-0.40;57.50
1455;DHT22;721;48.168;12.818;2023-02-15T04:10:39;-0.40;55.40
1455;DHT22;721;48.168;12.818;2023-02-15T04:13:23;-0.30;55.50
1455;DHT22;721;48.168;12.818;2023-02-15T04:15:51;-0.40;58.30
1455;DHT22;721;48.168;12.818;2023-02-15T04:18:32;-0.50;58.20
1455;DHT22;721;48.168;12.818;2023-02-15T04:21:18;-0.60;59.70
1455;DHT22;721;48.168;12.818;2023-02-15T04:24:03;-0.70;62.20
1455;DHT22;721;48.168;12.818;2023-02-15T04:26:47;-0.80;64.70
1455;DHT22;721;48.168;12.818;2023-02-15T04:29:14;-0.60;64.20
1455;DHT22;721;48.168;12.818;2023-02-15T04:31:41;-0.60;61.10
1455;DHT22;721;48.168;12.818;2023-02-15T04:34:09;-0.70;61.50
1455;DHT22;721;48.168;12.818;2023-02-15T04:36:37;-0.80;63.20
1455;DHT22;721;48.168;12.818;2023-02-15T04:39:05;-0.60;63.80
1455;DHT22;721;48.168;12.818;2023-02-15T04:41:32;-0.50;62.10
1455;DHT22;721;48.168;12.818;2023-02-15T04:43:59;-0.60;62.80
1455;DHT22;721;48.168;12.818;2023-02-15T04:46:26;-0.50;61.70
1455;DHT22;721;48.168;12.818;2023-02-15T04:48:53;-0.50;60.30
1455;DHT22;721;48.168;12.818;2023-02-15T04:51:20;-0.40;59.20
1455;DHT22;721;48.168;12.818;2023-02-15T04:53:48;-0.50;59.20
1455;DHT22;721;48.168;12.818;2023-02-15T04:56:15;-0.60;59.70
1455;DHT22;721;48.168;12.818;2023-02-15T04:58:42;-0.70;61.60
1455;DHT22;721;48.168;12.818;2023-02-15T05:01:08;-0.60;61.60
1455;DHT22;721;48.168;12.818;2023-02-15T05:03:36;-0.50;60.10
1455;DHT22;721;48.168;12.818;2023-02-15T05:06:03;-0.50;57.80
1455;DHT22;721;48.168;12.818;2023-02-15T05:08:31;-0.60;59.70
1455;DHT22;721;48.168;12.818;2023-02-15T05:10:59;-0.50;59.80
1455;DHT22;721;48.168;12.818;2023-02-15T05:13:25;-0.50;58.40
1455;DHT22;721;48.168;12.818;2023-02-15T05:15:52;-0.40;59.00
1455;DHT22;721;48.168;12.818;2023-02-15T05:18:20;-0.40;57.10
1455;DHT22;721;48.168;12.818;2023-02-15T05:20:47;-0.50;58.00
1455;DHT22;721;48.168;12.818;2023-02-15T05:23:14;-0.50;57.70
1455;DHT22;721;48.168;12.818;2023-02-15T05:25:41;-0.40;57.60
1455;DHT22;721;48.168;12.818;2023-02-15T05:28:27;-0.40;57.80
1455;DHT22;721;48.168;12.818;2023-02-15T05:31:04;-0.30;55.50
1455;DHT22;721;48.168;12.818;2023-02-15T05:33:32;-0.50;56.30
1455;DHT22;721;48.168;12.818;2023-02-15T05:35:59;-0.50;57.20
1455;DHT22;721;48.168;12.818;2023-02-15T05:38:26;-0.50;56.40
1455;DHT22;721;48.168;12.818;2023-02-15T05:40:53;-0.60;57.80
1455;DHT22;721;48.168;12.818;2023-02-15T05:43:20;-0.60;58.10
1455;DHT22;721;48.168;12.818;2023-02-15T05:45:49;-0.60;58.20
1455;DHT22;721;48.168;12.818;2023-02-15T05:48:16;-0.60;57.10
1455;DHT22;721;48.168;12.818;2023-02-15T05:50:44;-0.70;57.70
1455;DHT22;721;48.168;12.818;2023-02-15T05:53:11;-0.80;60.20
1455;DHT22;721;48.168;12.818;2023-02-15T05:55:38;-0.90;59.50
1455;DHT22;721;48.168;12.818;2023-02-15T05:58:05;-0.90;62.70
1455;DHT22;721;48.168;12.818;2023-02-15T06:00:32;-0.80;60.40
1455;DHT22;721;48.168;12.818;2023-02-15T06:03:00;-0.80;62.30
1455;DHT22;721;48.168;12.818;2023-02-15T06:05:26;-0.70;60.90
1455;DHT22;721;48.168;12.818;2023-02-15T06:07:53;-0.60;59.40
1455;DHT22;721;48.168;12.818;2023-02-15T06:10:20;-0.60;56.50
1455;DHT22;721;48.168;12.818;2023-02-15T06:12:47;-0.60;59.70
1455;DHT22;721;48.168;12.818;2023-02-15T06:15:13;-0.50;58.00
1455;DHT22;721;48.168;12.818;2023-02-15T06:17:41;-0.40;56.70
1455;DHT22;721;48.168;12.818;2023-02-15T06:20:10;-0.40;56.00
1455;DHT22;721;48.168;12.818;2023-02-15T06:22:37;-0.40;55.40
1455;DHT22;721;48.168;12.818;2023-02-15T06:25:04;-0.50;55.40
1455;DHT22;721;48.168;12.818;2023-02-15T06:27:31;-0.50;55.90
1455;DHT22;721;48.168;12.818;2023-02-15T06:29:57;-0.70;57.60
1455;DHT22;721;48.168;12.818;2023-02-15T06:32:24;-0.60;58.30
1455;DHT22;721;48.168;12.818;2023-02-15T06:34:51;-0.60;58.40
1455;DHT22;721;48.168;12.818;2023-02-15T06:37:19;-0.50;59.30
1455;DHT22;721;48.168;12.818;2023-02-15T06:39:45;-0.60;59.00
1455;DHT22;721;48.168;12.818;2023-02-15T06:42:12;-0.60;58.80
1455;DHT22;721;48.168;12.818;2023-02-15T06:44:39;-0.70;61.00
1455;DHT22;721;48.168;12.818;2023-02-15T06:47:06;-0.70;59.60
1455;DHT22;721;48.168;12.818;2023-02-15T06:49:32;-0.60;59.80
1455;DHT22;721;48.168;12.818;2023-02-15T06:51:59;-0.80;61.50
1455;DHT22;721;48.168;12.818;2023-02-15T06:54:27;-0.80;64.10
1455;DHT22;721;48.168;12.818;2023-02-15T06:56:54;-0.80;61.60
1455;DHT22;721;48.168;12.818;2023-02-15T06:59:21;-0.80;63.70
1455;DHT22;721;48.168;12.818;2023-02-15T07:01:48;-0.80;64.40
1455;DHT22;721;48.168;12.818;2023-02-15T07:04:15;-0.70;63.80
1455;DHT22;721;48.168;12.818;2023-02-15T07:06:41;-0.70;62.70
1455;DHT22;721;48.168;12.818;2023-02-15T07:09:08;-0.70;61.50
1455;DHT22;721;48.168;12.818;2023-02-15T07:11:36;-0.70;63.80
1455;DHT22;721;48.168;12.818;2023-02-15T07:14:21;-0.60;62.80
1455;DHT22;721;48.168;12.818;2023-02-15T07:16:48;-0.60;62.00
1455;DHT22;721;48.168;12.818;2023-02-15T07:19:15;-0.60;59.70
1455;DHT22;721;48.168;12.818;2023-02-15T07:21:42;-0.60;59.70
1455;DHT22;721;48.168;12.818;2023-02-15T07:24:11;-0.70;61.20
1455;DHT22;721;48.168;12.818;2023-02-15T07:26:39;-0.70;59.60
1455;DHT22;721;48.168;12.818;2023-02-15T07:29:06;-0.80;62.80
1455;DHT22;721;48.168;12.818;2023-02-15T07:31:33;-0.70;63.80
1455;DHT22;721;48.168;12.818;2023-02-15T07:34:00;-0.70;63.00
1455;DHT22;721;48.168;12.818;2023-02-15T07:36:27;-0.90;62.10
1455;DHT22;721;48.168;12.818;2023-02-15T07:38:53;-0.80;61.30
1455;DHT22;721;48.168;12.818;2023-02-15T07:41:20;-0.90;63.60
1455;DHT22;721;48.168;12.818;2023-02-15T07:43:50;-0.90;63.60
1455;DHT22;721;48.168;12.818;2023-02-15T07:46:17;-0.80;63.70
1455;DHT22;721;48.168;12.818;2023-02-15T07:48:45;-0.80;62.70
1455;DHT22;721;48.168;12.818;2023-02-15T07:51:12;-0.70;62.10
1455;DHT22;721;48.168;12.818;2023-02-15T07:53:40;-0.70;58.80
1455;DHT22;721;48.168;12.818;2023-02-15T07:56:10;-0.80;60.30
1455;DHT22;721;48.168;12.818;2023-02-15T07:58:37;-0.90;62.90
1455;DHT22;721;48.168;12.818;2023-02-15T08:01:26;-0.80;62.40
1455;DHT22;721;48.168;12.818;2023-02-15T08:03:53;-0.90;63.60
1455;DHT22;721;48.168;12.818;2023-02-15T08:06:21;-0.80;64.10
1455;DHT22;721;48.168;12.818;2023-02-15T08:08:48;-0.80;61.40
1455;DHT22;721;48.168;12.818;2023-02-15T08:11:17;-0.80;62.80
1455;DHT22;721;48.168;12.818;2023-02-15T08:13:56;-0.80;63.10
1455;DHT22;721;48.168;12.818;2023-02-15T08:16:28;-0.80;59.60
1455;DHT22;721;48.168;12.818;2023-02-15T08:18:56;-0.80;59.60
1455;DHT22;721;48.168;12.818;2023-02-15T08:21:25;-0.90;62.30
1455;DHT22;721;48.168;12.818;2023-02-15T08:23:52;-0.90;63.60
1455;DHT22;721;48.168;12.818;2023-02-15T08:26:19;-0.90;63.60
1455;DHT22;721;48.168;12.818;2023-02-15T08:28:46;-0.70;59.30
1455;DHT22;721;48.168;12.818;2023-02-15T08:31:14;-0.70;59.60
1455;DHT22;721;48.168;12.818;2023-02-15T08:33:45;-0.60;58.50
1455;DHT22;721;48.168;12.818;2023-02-15T08:36:14;-0.60;56.20
1455;DHT22;721;48.168;12.818;2023-02-15T08:38:41;-0.70;55.40
1455;DHT22;721;48.168;12.818;2023-02-15T08:41:10;-0.60;55.80
1455;DHT22;721;48.168;12.818;2023-02-15T08:43:37;-0.50;55.40
1455;DHT22;721;48.168;12.818;2023-02-15T08:46:04;-0.50;56.10
1455;DHT22;721;48.168;12.818;2023-02-15T08:48:31;-0.40;55.40
1455;DHT22;721;48.168;12.818;2023-02-15T08:51:04;-0.30;53.10
1455;DHT22;721;48.168;12.818;2023-02-15T08:53:32;-0.50;54.00
1455;DHT22;721;48.168;12.818;2023-02-15T08:55:59;-0.50;56.20
1455;DHT22;721;48.168;12.818;2023-02-15T08:58:26;-0.40;56.40
1455;DHT22;721;48.168;12.818;2023-02-15T09:00:52;-0.50;57.40
1455;DHT22;721;48.168;12.818;2023-02-15T09:03:19;-0.60;56.00
1455;DHT22;721;48.168;12.818;2023-02-15T09:05:46;-0.50;58.60
1455;DHT22;721;48.168;12.818;2023-02-15T09:08:14;-0.30;53.50
1455;DHT22;721;48.168;12.818;2023-02-15T09:10:41;-0.20;50.80
1455;DHT22;721;48.168;12.818;2023-02-15T09:13:08;-0.30;54.00
1455;DHT22;721;48.168;12.818;2023-02-15T09:15:34;-0.20;53.30
1455;DHT22;721;48.168;12.818;2023-02-15T09:18:02;-0.20;55.60
1455;DHT22;721;48.168;12.818;2023-02-15T09:20:31;0.00;54.10
1455;DHT22;721;48.168;12.818;2023-02-15T09:22:58;-0.30;53.50
1455;DHT22;721;48.168;12.818;2023-02-15T09:25:26;-0.30;55.20
1455;DHT22;721;48.168;12.818;2023-02-15T09:27:53;-0.20;55.10
1455;DHT22;721;48.168;12.818;2023-02-15T09:30:20;-0.20;54.90
1455;DHT22;721;48.168;12.818;2023-02-15T09:32:47;-0.20;54.60
1455;DHT22;721;48.168;12.818;2023-02-15T09:35:14;-0.30;55.30
1455;DHT22;721;48.168;12.818;2023-02-15T09:37:41;-0.40;55.80
1455;DHT22;721;48.168;12.818;2023-02-15T09:40:08;-0.30;54.60
1455;DHT22;721;48.168;12.818;2023-02-15T09:42:56;-0.20;55.60
1455;DHT22;721;48.168;12.818;2023-02-15T09:45:50;-0.20;54.40
1455;DHT22;721;48.168;12.818;2023-02-15T09:48:38;-0.30;56.60
1455;DHT22;721;48.168;12.818;2023-02-15T09:51:18;-0.40;61.50
1455;DHT22;721;48.168;12.818;2023-02-15T09:53:58;-0.40;63.40
1455;DHT22;721;48.168;12.818;2023-02-15T09:56:32;-0.30;64.20
1455;DHT22;721;48.168;12.818;2023-02-15T09:59:10;0.00;60.10
1455;DHT22;721;48.168;12.818;2023-02-15T10:01:45;0.10;55.30
1455;DHT22;721;48.168;12.818;2023-02-15T10:04:27;0.10;56.00
1455;DHT22;721;48.168;12.818;2023-02-15T10:07:10;0.20;51.40
1455;DHT22;721;48.168;12.818;2023-02-15T10:09:52;0.30;50.50
1455;DHT22;721;48.168;12.818;2023-02-15T10:12:39;0.40;49.80
1455;DHT22;721;48.168;12.818;2023-02-15T10:15:23;0.40;50.30
1455;DHT22;721;48.168;12.818;2023-02-15T10:18:21;0.30;51.20
1455;DHT22;721;48.168;12.818;2023-02-15T10:20:56;0.40;54.60
1455;DHT22;721;48.168;12.818;2023-02-15T10:23:48;0.40;52.70
1455;DHT22;721;48.168;12.818;2023-02-15T10:26:18;0.40;51.20
1455;DHT22;721;48.168;12.818;2023-02-15T10:28:48;0.40;50.60
1455;DHT22;721;48.168;12.818;2023-02-15T10:31:23;0.40;51.70
1455;DHT22;721;48.168;12.818;2023-02-15T10:34:01;0.60;54.30
1455;DHT22;721;48.168;12.818;2023-02-15T10:36:44;0.80;52.00
1455;DHT22;721;48.168;12.818;2023-02-15T10:39:22;0.90;52.10
1455;DHT22;721;48.168;12.818;2023-02-15T10:41:56;1.00;51.10
1455;DHT22;721;48.168;12.818;2023-02-15T10:44:36;0.80;49.90
1455;DHT22;721;48.168;12.818;2023-02-15T10:50:16;0.90;49.40
1455;DHT22;721;48.168;12.818;2023-02-15T10:52:56;1.00;45.30
1455;DHT22;721;48.168;12.818;2023-02-15T10:55:30;1.00;49.40
1455;DHT22;721;48.168;12.818;2023-02-15T10:58:09;1.10;51.40
1455;DHT22;721;48.168;12.818;2023-02-15T11:00:42;1.00;49.00
1455;DHT22;721;48.168;12.818;2023-02-15T11:03:28;0.90;49.10
1455;DHT22;721;48.168;12.818;2023-02-15T11:06:01;0.90;46.40
1455;DHT22;721;48.168;12.818;2023-02-15T11:08:32;1.00;47.60
1455;DHT22;721;48.168;12.818;2023-02-15T11:11:03;1.00;47.60
1455;DHT22;721;48.168;12.818;2023-02-15T11:13:34;1.00;51.60
1455;DHT22;721;48.168;12.818;2023-02-15T11:16:05;1.00;52.10
1455;DHT22;721;48.168;12.818;2023-02-15T11:18:37;1.10;52.20
1455;DHT22;721;48.168;12.818;2023-02-15T11:21:10;1.30;50.30
1455;DHT22;721;48.168;12.818;2023-02-15T11:23:43;1.40;46.50
1455;DHT22;721;48.168;12.818;2023-02-15T11:26:14;1.40;44.00
1455;DHT22;721;48.168;12.818;2023-02-15T11:28:47;1.40;45.90
1455;DHT22;721;48.168;12.818;2023-02-15T11:31:17;1.40;43.30
1455;DHT22;721;48.168;12.818;2023-02-15T11:33:48;1.20;48.50
1455;DHT22;721;48.168;12.818;2023-02-15T11:36:20;1.30;50.60
1455;DHT22;721;48.168;12.818;2023-02-15T11:38:52;1.40;47.60
1455;DHT22;721;48.168;12.818;2023-02-15T11:41:24;1.50;46.00
1455;DHT22;721;48.168;12.818;2023-02-15T11:43:56;1.30;47.30
1455;DHT22;721;48.168;12.818;2023-02-15T11:46:24;1.30;48.40
1455;DHT22;721;48.168;12.818;2023-02-15T11:48:53;1.50;49.20
1455;DHT22;721;48.168;12.818;2023-02-15T11:51:21;1.50;48.20
1455;DHT22;721;48.168;12.818;2023-02-15T11:53:49;1.60;48.10
1455;DHT22;721;48.168;12.818;2023-02-15T11:56:18;1.80;47.10
1455;DHT22;721;48.168;12.818;2023-02-15T11:58:48;1.50;43.40
1455;DHT22;721;48.168;12.818;2023-02-15T12:01:20;1.50;44.40
1455;DHT22;721;48.168;12.818;2023-02-15T12:03:50;1.60;50.00
1455;DHT22;721;48.168;12.818;2023-02-15T12:06:23;1.70;49.60
1455;DHT22;721;48.168;12.818;2023-02-15T12:08:55;1.90;46.70
1455;DHT22;721;48.168;12.818;2023-02-15T12:11:30;1.90;43.00
1455;DHT22;721;48.168;12.818;2023-02-15T12:13:59;2.00;43.50
1455;DHT22;721;48.168;12.818;2023-02-15T12:16:28;2.10;41.90
1455;DHT22;721;48.168;12.818;2023-02-15T12:18:56;1.80;42.60
1455;DHT22;721;48.168;12.818;2023-02-15T12:21:28;1.90;44.50
1455;DHT22;721;48.168;12.818;2023-02-15T12:23:58;1.70;45.00
1455;DHT22;721;48.168;12.818;2023-02-15T12:26:27;1.60;44.20
1455;DHT22;721;48.168;12.818;2023-02-15T12:28:56;1.50;49.40
1455;DHT22;721;48.168;12.818;2023-02-15T12:31:30;1.80;46.20
1455;DHT22;721;48.168;12.818;2023-02-15T12:34:00;1.90;45.90
1455;DHT22;721;48.168;12.818;2023-02-15T12:36:32;2.00;45.20
1455;DHT22;721;48.168;12.818;2023-02-15T12:39:20;1.70;41.70
1455;DHT22;721;48.168;12.818;2023-02-15T12:41:59;1.40;40.90
1455;DHT22;721;48.168;12.818;2023-02-15T12:44:27;1.60;44.20
1455;DHT22;721;48.168;12.818;2023-02-15T12:47:00;1.70;44.60
1455;DHT22;721;48.168;12.818;2023-02-15T12:49:28;1.80;43.60
1455;DHT22;721;48.168;12.818;2023-02-15T12:51:57;1.80;43.30
1455;DHT22;721;48.168;12.818;2023-02-15T12:54:33;1.90;42.50
1455;DHT22;721;48.168;12.818;2023-02-15T12:57:25;1.90;40.70
1455;DHT22;721;48.168;12.818;2023-02-15T12:59:55;1.50;42.50
1455;DHT22;721;48.168;12.818;2023-02-15T13:02:25;1.50;42.40
1455;DHT22;721;48.168;12.818;2023-02-15T13:04:53;1.50;46.40
1455;DHT22;721;48.168;12.818;2023-02-15T13:07:22;1.80;46.60
1455;DHT22;721;48.168;12.818;2023-02-15T13:09:50;1.80;44.70
1455;DHT22;721;48.168;12.818;2023-02-15T13:12:20;1.80;43.60
1455;DHT22;721;48.168;12.818;2023-02-15T13:14:50;1.80;44.10
1455;DHT22;721;48.168;12.818;2023-02-15T13:17:20;1.90;45.70
1455;DHT22;721;48.168;12.818;2023-02-15T13:19:51;1.70;41.70
1455;DHT22;721;48.168;12.818;2023-02-15T13:22:24;1.70;40.00
1455;DHT22;721;48.168;12.818;2023-02-15T13:24:56;1.80;41.90
1455;DHT22;721;48.168;12.818;2023-02-15T13:27:26;1.90;44.80
1455;DHT22;721;48.168;12.818;2023-02-15T13:29:58;2.00;39.20
1455;DHT22;721;48.168;12.818;2023-02-15T13:32:28;2.00;40.40
1455;DHT22;721;48.168;12.818;2023-02-15T13:34:58;1.60;38.70
1455;DHT22;721;48.168;12.818;2023-02-15T13:37:44;1.70;40.50
1455;DHT22;721;48.168;12.818;2023-02-15T13:40:15;1.70;43.80
1455;DHT22;721;48.168;12.818;2023-02-15T13:42:48;1.80;43.20
1455;DHT22;721;48.168;12.818;2023-02-15T13:45:29;1.60;43.40
1455;DHT22;721;48.168;12.818;2023-02-15T13:48:01;1.40;43.30
1455;DHT22;721;48.168;12.818;2023-02-15T13:50:42;1.40;43.30
1455;DHT22;721;48.168;12.818;2023-02-15T13:53:24;1.60;43.90
1455;DHT22;721;48.168;12.818;2023-02-15T13:55:55;1.80;44.30
1455;DHT22;721;48.168;12.818;2023-02-15T14:01:28;1.90;42.10
1455;DHT22;721;48.168;12.818;2023-02-15T14:04:18;1.80;42.00
1455;DHT22;721;48.168;12.818;2023-02-15T14:09:50;1.90;46.20
1455;DHT22;721;48.168;12.818;2023-02-15T14:12:37;2.10;43.90
1455;DHT22;721;48.168;12.818;2023-02-15T14:15:14;2.10;41.40
1455;DHT22;721;48.168;12.818;2023-02-15T14:17:51;2.10;40.10
1455;DHT22;721;48.168;12.818;2023-02-15T14:20:25;2.20;39.30
1455;DHT22;721;48.168;12.818;2023-02-15T14:23:01;2.30;39.40
1455;DHT22;721;48.168;12.818;2023-02-15T14:25:39;2.30;35.70
1455;DHT22;721;48.168;12.818;2023-02-15T14:28:10;2.20;38.90
1455;DHT22;721;48.168;12.818;2023-02-15T14:30:41;2.10;39.80
1455;DHT22;721;48.168;12.818;2023-02-15T14:33:31;2.00;39.10
1455;DHT22;721;48.168;12.818;2023-02-15T14:35:59;2.00;42.40
1455;DHT22;721;48.168;12.818;2023-02-15T14:38:43;1.90;43.30
1455;DHT22;721;48.168;12.818;2023-02-15T14:41:19;1.70;45.40
1455;DHT22;721;48.168;12.818;2023-02-15T14:43:59;1.70;48.20
1455;DHT22;721;48.168;12.818;2023-02-15T14:46:31;1.90;45.90
1455;DHT22;721;48.168;12.818;2023-02-15T14:49:06;2.00;43.80
1455;DHT22;721;48.168;12.818;2023-02-15T14:51:54;2.00;42.50
1455;DHT22;721;48.168;12.818;2023-02-15T14:57:36;1.90;43.20
1455;DHT22;721;48.168;12.818;2023-02-15T15:00:32;1.90;42.10
1455;DHT22;721;48.168;12.818;2023-02-15T15:03:00;1.60;46.70
1455;DHT22;721;48.168;12.818;2023-02-15T15:05:33;1.60;48.70
1455;DHT22;721;48.168;12.818;2023-02-15T15:08:01;1.70;48.10
1455;DHT22;721;48.168;12.818;2023-02-15T15:10:38;1.80;46.70
1455;DHT22;721;48.168;12.818;2023-02-15T15:13:36;1.90;45.20
1455;DHT22;721;48.168;12.818;2023-02-15T15:16:30;1.80;47.20
1455;DHT22;721;48.168;12.818;2023-02-15T15:18:57;1.80;44.40
1455;DHT22;721;48.168;12.818;2023-02-15T15:21:56;1.80;45.60
1455;DHT22;721;48.168;12.818;2023-02-15T15:24:49;1.80;45.10
1455;DHT22;721;48.168;12.818;2023-02-15T15:27:42;1.80;44.00
1455;DHT22;721;48.168;12.818;2023-02-15T15:30:48;1.90;43.70
1455;DHT22;721;48.168;12.818;2023-02-15T15:33:43;1.70;45.10
1455;DHT22;721;48.168;12.818;2023-02-15T15:43:00;1.60;44.60
1455;DHT22;721;48.168;12.818;2023-02-15T15:45:56;1.70;44.80
1455;DHT22;721;48.168;12.818;2023-02-15T15:48:33;1.60;44.40
1455;DHT22;721;48.168;12.818;2023-02-15T15:51:06;1.50;45.20
1455;DHT22;721;48.168;12.818;2023-02-15T15:53:40;1.30;47.80
1455;DHT22;721;48.168;12.818;2023-02-15T15:56:13;1.20;51.00
1455;DHT22;721;48.168;12.818;2023-02-15T15:58:48;1.10;50.90
1455;DHT22;721;48.168;12.818;2023-02-15T16:01:24;1.20;49.90
1455;DHT22;721;48.168;12.818;2023-02-15T16:03:54;1.10;51.80
1455;DHT22;721;48.168;12.818;2023-02-15T16:06:30;1.10;51.80
1455;DHT22;721;48.168;12.818;2023-02-15T16:08:58;1.10;52.20
1455;DHT22;721;48.168;12.818;2023-02-15T16:11:35;1.20;51.10
1455;DHT22;721;48.168;12.818;2023-02-15T16:14:11;1.20;49.50
1455;DHT22;721;48.168;12.818;2023-02-15T16:16:39;1.10;48.50
1455;DHT22;721;48.168;12.818;2023-02-15T16:19:21;0.90;52.30
1455;DHT22;721;48.168;12.818;2023-02-15T16:21:49;1.00;52.40
1455;DHT22;721;48.168;12.818;2023-02-15T16:24:25;1.10;51.10
1455;DHT22;721;48.168;12.818;2023-02-15T16:27:11;1.00;50.70
1455;DHT22;721;48.168;12.818;2023-02-15T16:29:39;0.90;52.10
1455;DHT22;721;48.168;12.818;2023-02-15T16:32:17;0.70;55.50
1455;DHT22;721;48.168;12.818;2023-02-15T16:34:51;0.80;55.10
1455;DHT22;721;48.168;12.818;2023-02-15T16:37:20;0.90;54.20
1455;DHT22;721;48.168;12.818;2023-02-15T16:39:49;1.00;51.80
1455;DHT22;721;48.168;12.818;2023-02-15T16:42:17;0.90;52.50
1455;DHT22;721;48.168;12.818;2023-02-15T16:44:45;0.90;53.20
1455;DHT22;721;48.168;12.818;2023-02-15T16:47:16;1.10;52.20
1455;DHT22;721;48.168;12.818;2023-02-15T16:49:46;1.10;47.70
1455;DHT22;721;48.168;12.818;2023-02-15T16:52:18;1.10;48.40
1455;DHT22;721;48.168;12.818;2023-02-15T16:54:48;1.10;46.50
1455;DHT22;721;48.168;12.818;2023-02-15T16:57:19;0.80;47.80
1455;DHT22;721;48.168;12.818;2023-02-15T16:59:48;0.70;51.90
1455;DHT22;721;48.168;12.818;2023-02-15T17:02:20;0.70;50.90